sensor_id;sensor_type;location;lat;lon;timestamp;pressure;altitude;pressure_sealevel;temperature;humidity
59110;BME280;44895;47.438;18.978;2023-04-26T00:02:33;99385.91;;;9.14;100.00
59110;BME280;44895;47.438;18.978;2023-04-26T00:05:38;99381.69;;;9.22;100.00
59110;BME280;44895;47.438;18.978;2023-04-26T00:08:42;99384.66;;;9.21;100.00
59110;BME280;44895;47.438;18.978;2023-04-26T00:11:45;99385.19;;;9.23;100.00
59110;BME280;44895;47.438;18.978;2023-04-26T00:14:49;99379.75;;;9.23;100.00
59110;BME280;44895;47.438;18.978;2023-04-26T00:17:53;99385.59;;;9.30;100.00
59110;BME280;44895;47.438;18.978;2023-04-26T00:20:57;99393.72;;;9.30;100.00
59110;BME280;44895;47.438;18.978;2023-04-26T00:24:01;99390.81;;;9.26;100.00
59110;BME280;44895;47.438;18.978;2023-04-26T00:27:04;99401.22;;;9.33;100.00
59110;BME280;44895;47.438;18.978;2023-04-26T00:30:13;99398.22;;;9.21;100.00
59110;BME280;44895;47.438;18.978;2023-04-26T00:33:17;99411.28;;;9.33;100.00
59110;BME280;44895;47.438;18.978;2023-04-26T00:36:20;99410.66;;;9.22;100.00
59110;BME280;44895;47.438;18.978;2023-04-26T00:39:24;99418.69;;;9.27;100.00
59110;BME280;44895;47.438;18.978;2023-04-26T00:42:28;99421.41;;;9.27;100.00
59110;BME280;44895;47.438;18.978;2023-04-26T00:45:33;99411.50;;;9.22;100.00
59110;BME280;44895;47.438;18.978;2023-04-26T00:48:38;99420.72;;;9.21;100.00
59110;BME280;44895;47.438;18.978;2023-04-26T00:51:43;99418.19;;;9.11;100.00
59110;BME280;44895;47.438;18.978;2023-04-26T00:54:50;99418.78;;;8.94;100.00
59110;BME280;44895;47.438;18.978;2023-04-26T00:57:54;99408.88;;;9.03;100.00
59110;BME280;44895;47.438;18.978;2023-04-26T01:00:58;99405.50;;;8.78;100.00
59110;BME280;44895;47.438;18.978;2023-04-26T01:04:01;99417.66;;;8.95;100.00
59110;BME280;44895;47.438;18.978;2023-04-26T01:07:05;99423.38;;;8.79;100.00
59110;BME280;44895;47.438;18.978;2023-04-26T01:10:10;99432.88;;;8.77;100.00
59110;BME280;44895;47.438;18.978;2023-04-26T01:13:15;99419.56;;;8.80;100.00
59110;BME280;44895;47.438;18.978;2023-04-26T01:16:18;99432.06;;;8.76;100.00
59110;BME280;44895;47.438;18.978;2023-04-26T01:19:24;99423.81;;;8.68;100.00
59110;BME280;44895;47.438;18.978;2023-04-26T01:22:31;99435.38;;;8.73;100.00
59110;BME280;44895;47.438;18.978;2023-04-26T01:25:35;99442.19;;;8.71;100.00
59110;BME280;44895;47.438;18.978;2023-04-26T01:28:38;99445.19;;;8.69;100.00
59110;BME280;44895;47.438;18.978;2023-04-26T01:31:42;99450.84;;;8.54;100.00
59110;BME280;44895;47.438;18.978;2023-04-26T01:34:45;99459.47;;;8.56;100.00
59110;BME280;44895;47.438;18.978;2023-04-26T01:37:49;99454.38;;;8.54;100.00
59110;BME280;44895;47.438;18.978;2023-04-26T01:40:53;99455.25;;;8.49;100.00
59110;BME280;44895;47.438;18.978;2023-04-26T01:43:57;99456.13;;;8.45;100.00
59110;BME280;44895;47.438;18.978;2023-04-26T01:47:01;99466.19;;;8.39;100.00
59110;BME280;44895;47.438;18.978;2023-04-26T01:50:06;99463.66;;;8.29;100.00
59110;BME280;44895;47.438;18.978;2023-04-26T01:53:10;99474.84;;;8.41;100.00
59110;BME280;44895;47.438;18.978;2023-04-26T01:56:13;99468.31;;;8.23;100.00
59110;BME280;44895;47.438;18.978;2023-04-26T01:59:17;99463.34;;;8.30;100.00
59110;BME280;44895;47.438;18.978;2023-04-26T02:02:21;99470.31;;;8.37;100.00
59110;BME280;44895;47.438;18.978;2023-04-26T02:05:24;99468.53;;;8.27;100.00
59110;BME280;44895;47.438;18.978;2023-04-26T02:08:28;99477.63;;;8.36;100.00
59110;BME280;44895;47.438;18.978;2023-04-26T02:11:32;99482.66;;;8.24;100.00
59110;BME280;44895;47.438;18.978;2023-04-26T02:14:36;99489.03;;;8.33;100.00
59110;BME280;44895;47.438;18.978;2023-04-26T02:17:41;99493.13;;;8.30;100.00
59110;BME280;44895;47.438;18.978;2023-04-26T02:20:44;99491.34;;;8.21;100.00
59110;BME280;44895;47.438;18.978;2023-04-26T02:23:48;99488.56;;;8.26;100.00
59110;BME280;44895;47.438;18.978;2023-04-26T02:26:52;99478.88;;;8.25;100.00
59110;BME280;44895;47.438;18.978;2023-04-26T02:29:57;99479.59;;;8.30;100.00
59110;BME280;44895;47.438;18.978;2023-04-26T02:33:01;99485.81;;;8.31;100.00
59110;BME280;44895;47.438;18.978;2023-04-26T02:36:06;99493.50;;;8.24;100.00
59110;BME280;44895;47.438;18.978;2023-04-26T02:39:10;99487.06;;;8.20;100.00
59110;BME280;44895;47.438;18.978;2023-04-26T02:42:14;99487.63;;;8.16;100.00
59110;BME280;44895;47.438;18.978;2023-04-26T02:45:18;99488.00;;;8.10;100.00
59110;BME280;44895;47.438;18.978;2023-04-26T02:48:23;99490.63;;;8.15;100.00
59110;BME280;44895;47.438;18.978;2023-04-26T02:51:27;99501.53;;;8.10;100.00
59110;BME280;44895;47.438;18.978;2023-04-26T02:54:31;99491.41;;;7.96;100.00
59110;BME280;44895;47.438;18.978;2023-04-26T02:57:34;99503.53;;;7.99;100.00
59110;BME280;44895;47.438;18.978;2023-04-26T03:00:44;99508.81;;;8.09;100.00
59110;BME280;44895;47.438;18.978;2023-04-26T03:03:48;99520.66;;;7.94;100.00
59110;BME280;44895;47.438;18.978;2023-04-26T03:06:52;99519.53;;;7.95;100.00
59110;BME280;44895;47.438;18.978;2023-04-26T03:09:56;99524.69;;;7.97;100.00
59110;BME280;44895;47.438;18.978;2023-04-26T03:13:00;99517.19;;;7.89;100.00
59110;BME280;44895;47.438;18.978;2023-04-26T03:16:04;99523.84;;;7.96;100.00
59110;BME280;44895;47.438;18.978;2023-04-26T03:19:09;99528.00;;;7.89;100.00
59110;BME280;44895;47.438;18.978;2023-04-26T03:22:13;99530.22;;;7.87;100.00
59110;BME280;44895;47.438;18.978;2023-04-26T03:25:19;99526.81;;;7.76;100.00
59110;BME280;44895;47.438;18.978;2023-04-26T03:28:22;99533.53;;;7.78;100.00
59110;BME280;44895;47.438;18.978;2023-04-26T03:31:26;99540.56;;;7.79;100.00
59110;BME280;44895;47.438;18.978;2023-04-26T03:34:30;99545.91;;;7.84;100.00
59110;BME280;44895;47.438;18.978;2023-04-26T03:37:34;99556.19;;;7.82;100.00
59110;BME280;44895;47.438;18.978;2023-04-26T03:40:42;99554.03;;;7.84;100.00
59110;BME280;44895;47.438;18.978;2023-04-26T03:43:46;99557.25;;;7.87;100.00
59110;BME280;44895;47.438;18.978;2023-04-26T03:46:49;99555.34;;;7.87;100.00
59110;BME280;44895;47.438;18.978;2023-04-26T03:49:53;99565.38;;;7.87;100.00
59110;BME280;44895;47.438;18.978;2023-04-26T03:52:57;99574.38;;;7.77;100.00
59110;BME280;44895;47.438;18.978;2023-04-26T03:56:00;99563.16;;;7.89;100.00
59110;BME280;44895;47.438;18.978;2023-04-26T03:59:04;99574.44;;;7.72;100.00
59110;BME280;44895;47.438;18.978;2023-04-26T04:02:09;99572.19;;;7.79;100.00
59110;BME280;44895;47.438;18.978;2023-04-26T04:05:12;99580.81;;;7.81;100.00
59110;BME280;44895;47.438;18.978;2023-04-26T04:08:16;99574.38;;;8.01;100.00
59110;BME280;44895;47.438;18.978;2023-04-26T04:11:20;99582.66;;;8.10;100.00
59110;BME280;44895;47.438;18.978;2023-04-26T04:14:24;99598.84;;;8.15;100.00
59110;BME280;44895;47.438;18.978;2023-04-26T04:17:28;99603.31;;;8.25;100.00
59110;BME280;44895;47.438;18.978;2023-04-26T04:20:32;99596.59;;;8.22;100.00
59110;BME280;44895;47.438;18.978;2023-04-26T04:23:37;99604.50;;;8.38;100.00
59110;BME280;44895;47.438;18.978;2023-04-26T04:26:44;99614.44;;;8.47;100.00
59110;BME280;44895;47.438;18.978;2023-04-26T04:29:49;99628.78;;;8.43;100.00
59110;BME280;44895;47.438;18.978;2023-04-26T04:32:53;99638.44;;;8.30;100.00
59110;BME280;44895;47.438;18.978;2023-04-26T04:35:57;99638.53;;;8.44;100.00
59110;BME280;44895;47.438;18.978;2023-04-26T04:39:02;99637.34;;;8.31;100.00
59110;BME280;44895;47.438;18.978;2023-04-26T04:42:06;99639.16;;;8.36;100.00
59110;BME280;44895;47.438;18.978;2023-04-26T04:45:10;99650.28;;;8.34;100.00
59110;BME280;44895;47.438;18.978;2023-04-26T04:48:16;99655.63;;;8.39;100.00
59110;BME280;44895;47.438;18.978;2023-04-26T04:51:22;99662.31;;;8.47;100.00
59110;BME280;44895;47.438;18.978;2023-04-26T04:54:26;99666.38;;;8.44;100.00
59110;BME280;44895;47.438;18.978;2023-04-26T04:57:29;99667.47;;;8.43;100.00
59110;BME280;44895;47.438;18.978;2023-04-26T05:00:34;99669.81;;;8.55;100.00
59110;BME280;44895;47.438;18.978;2023-04-26T05:03:50;99683.06;;;8.57;100.00
59110;BME280;44895;47.438;18.978;2023-04-26T05:06:54;99673.84;;;8.58;100.00
59110;BME280;44895;47.438;18.978;2023-04-26T05:09:59;99679.50;;;8.80;100.00
59110;BME280;44895;47.438;18.978;2023-04-26T05:13:03;99683.88;;;8.76;100.00
59110;BME280;44895;47.438;18.978;2023-04-26T05:16:08;99676.34;;;8.73;100.00
59110;BME280;44895;47.438;18.978;2023-04-26T05:19:13;99687.91;;;8.79;100.00
59110;BME280;44895;47.438;18.978;2023-04-26T05:22:18;99695.09;;;8.89;100.00
59110;BME280;44895;47.438;18.978;2023-04-26T05:25:23;99688.75;;;8.98;100.00
59110;BME280;44895;47.438;18.978;2023-04-26T05:28:33;99689.53;;;8.99;100.00
59110;BME280;44895;47.438;18.978;2023-04-26T05:32:00;99687.88;;;9.22;100.00
59110;BME280;44895;47.438;18.978;2023-04-26T05:35:26;99684.72;;;9.15;100.00
59110;BME280;44895;47.438;18.978;2023-04-26T05:38:30;99685.53;;;9.49;100.00
59110;BME280;44895;47.438;18.978;2023-04-26T05:41:34;99693.63;;;9.68;100.00
59110;BME280;44895;47.438;18.978;2023-04-26T05:44:38;99692.97;;;9.76;100.00
59110;BME280;44895;47.438;18.978;2023-04-26T05:47:43;99690.28;;;9.90;100.00
59110;BME280;44895;47.438;18.978;2023-04-26T05:50:47;99689.22;;;10.05;100.00
59110;BME280;44895;47.438;18.978;2023-04-26T05:53:51;99691.75;;;10.29;100.00
59110;BME280;44895;47.438;18.978;2023-04-26T05:56:55;99687.25;;;10.38;100.00
59110;BME280;44895;47.438;18.978;2023-04-26T05:59:59;99677.00;;;13.76;95.41
59110;BME280;44895;47.438;18.978;2023-04-26T06:03:04;99680.25;;;18.23;59.63
59110;BME280;44895;47.438;18.978;2023-04-26T06:06:08;99676.63;;;19.85;49.12
59110;BME280;44895;47.438;18.978;2023-04-26T06:09:15;99686.28;;;20.98;46.74
59110;BME280;44895;47.438;18.978;2023-04-26T06:12:18;99684.16;;;22.35;43.79
59110;BME280;44895;47.438;18.978;2023-04-26T06:15:23;99694.28;;;22.69;41.71
59110;BME280;44895;47.438;18.978;2023-04-26T06:18:27;99690.72;;;21.71;40.21
59110;BME280;44895;47.438;18.978;2023-04-26T06:21:30;99692.69;;;22.60;38.39
59110;BME280;44895;47.438;18.978;2023-04-26T06:24:35;99682.09;;;23.65;36.59
59110;BME280;44895;47.438;18.978;2023-04-26T06:27:39;99682.47;;;25.04;35.33
59110;BME280;44895;47.438;18.978;2023-04-26T06:30:43;99677.41;;;24.70;34.79
59110;BME280;44895;47.438;18.978;2023-04-26T06:33:47;99682.94;;;24.63;32.67
59110;BME280;44895;47.438;18.978;2023-04-26T06:36:51;99679.94;;;26.55;32.74
59110;BME280;44895;47.438;18.978;2023-04-26T06:39:56;99686.06;;;26.39;31.56
59110;BME280;44895;47.438;18.978;2023-04-26T06:43:00;99672.25;;;26.66;31.20
59110;BME280;44895;47.438;18.978;2023-04-26T06:46:22;99678.84;;;27.22;30.24
59110;BME280;44895;47.438;18.978;2023-04-26T06:49:30;99685.88;;;26.99;31.02
59110;BME280;44895;47.438;18.978;2023-04-26T06:52:34;99681.31;;;26.78;30.14
59110;BME280;44895;47.438;18.978;2023-04-26T06:55:37;99686.94;;;27.43;30.31
59110;BME280;44895;47.438;18.978;2023-04-26T06:58:57;99688.50;;;23.91;30.71
59110;BME280;44895;47.438;18.978;2023-04-26T07:02:01;99688.13;;;24.47;31.12
59110;BME280;44895;47.438;18.978;2023-04-26T07:05:05;99700.13;;;22.04;33.01
59110;BME280;44895;47.438;18.978;2023-04-26T07:08:09;99703.22;;;20.97;34.36
59110;BME280;44895;47.438;18.978;2023-04-26T07:11:12;99699.31;;;21.32;34.92
59110;BME280;44895;47.438;18.978;2023-04-26T07:14:16;99702.69;;;20.64;34.85
59110;BME280;44895;47.438;18.978;2023-04-26T07:17:20;99706.19;;;20.84;35.71
59110;BME280;44895;47.438;18.978;2023-04-26T07:20:24;99698.88;;;21.98;34.40
59110;BME280;44895;47.438;18.978;2023-04-26T07:23:28;99707.59;;;21.32;35.16
59110;BME280;44895;47.438;18.978;2023-04-26T07:26:33;99717.34;;;20.92;34.90
59110;BME280;44895;47.438;18.978;2023-04-26T07:29:38;99726.16;;;20.04;36.06
59110;BME280;44895;47.438;18.978;2023-04-26T07:32:41;99713.00;;;19.55;37.06
59110;BME280;44895;47.438;18.978;2023-04-26T07:35:52;99732.66;;;18.82;36.73
59110;BME280;44895;47.438;18.978;2023-04-26T07:38:56;99729.25;;;18.05;37.57
59110;BME280;44895;47.438;18.978;2023-04-26T07:41:59;99740.59;;;18.20;38.51
59110;BME280;44895;47.438;18.978;2023-04-26T07:45:03;99728.88;;;17.63;36.85
59110;BME280;44895;47.438;18.978;2023-04-26T07:48:07;99745.19;;;17.71;36.82
59110;BME280;44895;47.438;18.978;2023-04-26T07:51:11;99751.16;;;18.98;36.35
59110;BME280;44895;47.438;18.978;2023-04-26T07:54:16;99750.91;;;17.38;38.32
59110;BME280;44895;47.438;18.978;2023-04-26T07:57:19;99747.53;;;17.85;36.92
59110;BME280;44895;47.438;18.978;2023-04-26T08:00:23;99763.94;;;17.41;36.67
59110;BME280;44895;47.438;18.978;2023-04-26T08:03:26;99765.56;;;17.42;37.14
59110;BME280;44895;47.438;18.978;2023-04-26T08:06:30;99757.63;;;17.00;37.53
59110;BME280;44895;47.438;18.978;2023-04-26T08:09:34;99764.94;;;16.71;37.98
59110;BME280;44895;47.438;18.978;2023-04-26T08:12:38;99761.63;;;15.73;39.50
59110;BME280;44895;47.438;18.978;2023-04-26T08:15:42;99773.41;;;16.20;39.92
59110;BME280;44895;47.438;18.978;2023-04-26T08:18:46;99774.13;;;16.17;39.60
59110;BME280;44895;47.438;18.978;2023-04-26T08:21:50;99771.19;;;16.46;39.49
59110;BME280;44895;47.438;18.978;2023-04-26T08:24:54;99763.66;;;17.58;38.46
59110;BME280;44895;47.438;18.978;2023-04-26T08:27:58;99781.03;;;17.63;37.32
59110;BME280;44895;47.438;18.978;2023-04-26T08:31:01;99787.28;;;16.60;37.34
59110;BME280;44895;47.438;18.978;2023-04-26T08:34:05;99794.59;;;16.32;37.18
59110;BME280;44895;47.438;18.978;2023-04-26T08:37:11;99789.34;;;16.51;37.64
59110;BME280;44895;47.438;18.978;2023-04-26T08:40:22;99795.03;;;17.45;36.74
59110;BME280;44895;47.438;18.978;2023-04-26T08:43:29;99786.88;;;17.08;36.90
59110;BME280;44895;47.438;18.978;2023-04-26T08:46:46;99789.41;;;16.30;37.53
59110;BME280;44895;47.438;18.978;2023-04-26T08:49:55;99797.59;;;16.63;38.04
59110;BME280;44895;47.438;18.978;2023-04-26T08:53:02;99789.25;;;16.60;38.34
59110;BME280;44895;47.438;18.978;2023-04-26T08:56:07;99789.41;;;16.18;39.08
59110;BME280;44895;47.438;18.978;2023-04-26T08:59:14;99798.13;;;15.56;39.79
59110;BME280;44895;47.438;18.978;2023-04-26T09:02:21;99794.31;;;15.27;39.53
59110;BME280;44895;47.438;18.978;2023-04-26T09:05:28;99804.06;;;14.86;39.77
59110;BME280;44895;47.438;18.978;2023-04-26T09:08:34;99806.50;;;14.23;40.48
59110;BME280;44895;47.438;18.978;2023-04-26T09:11:55;99800.94;;;14.49;41.51
59110;BME280;44895;47.438;18.978;2023-04-26T09:15:00;99789.91;;;14.37;41.18
59110;BME280;44895;47.438;18.978;2023-04-26T09:18:19;99785.13;;;15.02;41.57
59110;BME280;44895;47.438;18.978;2023-04-26T09:21:24;99797.00;;;14.85;41.74
59110;BME280;44895;47.438;18.978;2023-04-26T09:24:33;99783.88;;;14.61;41.97
59110;BME280;44895;47.438;18.978;2023-04-26T09:27:48;99789.63;;;14.29;41.40
59110;BME280;44895;47.438;18.978;2023-04-26T09:30:53;99796.31;;;14.88;41.53
59110;BME280;44895;47.438;18.978;2023-04-26T09:33:58;99783.84;;;14.78;40.59
59110;BME280;44895;47.438;18.978;2023-04-26T09:37:02;99793.53;;;14.97;41.16
59110;BME280;44895;47.438;18.978;2023-04-26T09:40:17;99797.16;;;15.10;40.82
59110;BME280;44895;47.438;18.978;2023-04-26T09:43:21;99806.00;;;15.15;39.69
59110;BME280;44895;47.438;18.978;2023-04-26T09:46:25;99797.03;;;14.76;39.76
59110;BME280;44895;47.438;18.978;2023-04-26T09:49:44;99789.00;;;14.62;39.85
59110;BME280;44895;47.438;18.978;2023-04-26T09:52:49;99795.66;;;14.91;39.75
59110;BME280;44895;47.438;18.978;2023-04-26T09:55:54;99788.97;;;14.80;39.59
59110;BME280;44895;47.438;18.978;2023-04-26T09:58:59;99794.16;;;14.73;39.41
59110;BME280;44895;47.438;18.978;2023-04-26T10:02:20;99786.25;;;14.80;40.02
59110;BME280;44895;47.438;18.978;2023-04-26T10:05:24;99780.91;;;14.83;40.06
59110;BME280;44895;47.438;18.978;2023-04-26T10:08:30;99797.81;;;14.29;41.22
59110;BME280;44895;47.438;18.978;2023-04-26T10:11:37;99784.22;;;14.59;41.59
59110;BME280;44895;47.438;18.978;2023-04-26T10:14:42;99791.72;;;14.80;40.58
59110;BME280;44895;47.438;18.978;2023-04-26T10:17:47;99794.53;;;14.92;40.08
59110;BME280;44895;47.438;18.978;2023-04-26T10:20:52;99787.63;;;14.95;40.95
59110;BME280;44895;47.438;18.978;2023-04-26T10:23:58;99782.31;;;15.20;40.63
59110;BME280;44895;47.438;18.978;2023-04-26T10:27:02;99794.41;;;15.10;40.74
59110;BME280;44895;47.438;18.978;2023-04-26T10:30:08;99790.84;;;15.18;41.33
59110;BME280;44895;47.438;18.978;2023-04-26T10:33:12;99791.16;;;14.57;41.10
59110;BME280;44895;47.438;18.978;2023-04-26T10:36:16;99796.25;;;14.76;42.51
59110;BME280;44895;47.438;18.978;2023-04-26T10:39:20;99798.84;;;14.55;42.65
59110;BME280;44895;47.438;18.978;2023-04-26T10:42:28;99817.53;;;14.35;42.81
59110;BME280;44895;47.438;18.978;2023-04-26T10:45:33;99822.09;;;13.96;41.84
59110;BME280;44895;47.438;18.978;2023-04-26T10:48:37;99822.94;;;13.96;41.75
59110;BME280;44895;47.438;18.978;2023-04-26T10:51:40;99809.31;;;14.44;40.80
59110;BME280;44895;47.438;18.978;2023-04-26T10:55:04;99794.38;;;14.41;41.42
59110;BME280;44895;47.438;18.978;2023-04-26T10:58:31;99806.78;;;14.39;41.69
59110;BME280;44895;47.438;18.978;2023-04-26T11:01:36;99819.41;;;13.87;42.86
59110;BME280;44895;47.438;18.978;2023-04-26T11:04:52;99819.38;;;14.05;43.03
59110;BME280;44895;47.438;18.978;2023-04-26T11:11:29;99814.53;;;14.28;41.87
59110;BME280;44895;47.438;18.978;2023-04-26T11:14:35;99800.28;;;14.61;40.27
59110;BME280;44895;47.438;18.978;2023-04-26T11:17:39;99797.16;;;14.32;39.47
59110;BME280;44895;47.438;18.978;2023-04-26T11:20:43;99784.00;;;14.17;40.51
59110;BME280;44895;47.438;18.978;2023-04-26T11:23:53;99787.59;;;14.09;40.90
59110;BME280;44895;47.438;18.978;2023-04-26T11:26:57;99790.13;;;14.14;41.59
59110;BME280;44895;47.438;18.978;2023-04-26T11:30:02;99799.19;;;13.62;42.50
59110;BME280;44895;47.438;18.978;2023-04-26T11:33:15;99810.88;;;13.89;42.72
59110;BME280;44895;47.438;18.978;2023-04-26T11:36:21;99812.63;;;13.84;42.34
59110;BME280;44895;47.438;18.978;2023-04-26T11:39:26;99815.06;;;13.51;41.77
59110;BME280;44895;47.438;18.978;2023-04-26T11:42:31;99815.50;;;14.06;40.53
59110;BME280;44895;47.438;18.978;2023-04-26T11:45:36;99803.28;;;14.21;40.21
59110;BME280;44895;47.438;18.978;2023-04-26T11:48:40;99798.41;;;14.44;40.38
59110;BME280;44895;47.438;18.978;2023-04-26T11:51:47;99798.91;;;14.37;40.72
59110;BME280;44895;47.438;18.978;2023-04-26T11:55:00;99799.09;;;14.79;42.34
59110;BME280;44895;47.438;18.978;2023-04-26T11:58:11;99805.16;;;14.38;42.02
59110;BME280;44895;47.438;18.978;2023-04-26T12:01:22;99809.91;;;14.02;41.50
59110;BME280;44895;47.438;18.978;2023-04-26T12:04:27;99817.13;;;13.89;41.59
59110;BME280;44895;47.438;18.978;2023-04-26T12:07:36;99811.81;;;14.10;40.53
59110;BME280;44895;47.438;18.978;2023-04-26T12:10:40;99822.31;;;13.73;40.16
59110;BME280;44895;47.438;18.978;2023-04-26T12:13:44;99817.31;;;13.93;40.74
59110;BME280;44895;47.438;18.978;2023-04-26T12:16:48;99816.03;;;13.81;40.65
59110;BME280;44895;47.438;18.978;2023-04-26T12:19:52;99806.31;;;14.37;40.33
59110;BME280;44895;47.438;18.978;2023-04-26T12:26:04;99806.75;;;14.95;38.94
59110;BME280;44895;47.438;18.978;2023-04-26T12:29:08;99793.28;;;14.90;40.26
59110;BME280;44895;47.438;18.978;2023-04-26T12:32:12;99802.53;;;14.67;39.32
59110;BME280;44895;47.438;18.978;2023-04-26T12:35:16;99797.59;;;14.43;38.57
59110;BME280;44895;47.438;18.978;2023-04-26T12:38:19;99811.66;;;14.07;38.90
59110;BME280;44895;47.438;18.978;2023-04-26T12:41:24;99812.06;;;14.44;40.42
59110;BME280;44895;47.438;18.978;2023-04-26T12:44:27;99810.00;;;14.41;40.52
59110;BME280;44895;47.438;18.978;2023-04-26T12:47:31;99821.53;;;14.46;41.30
59110;BME280;44895;47.438;18.978;2023-04-26T12:50:35;99830.94;;;14.19;40.74
59110;BME280;44895;47.438;18.978;2023-04-26T12:53:39;99833.03;;;13.96;41.12
59110;BME280;44895;47.438;18.978;2023-04-26T12:56:43;99839.63;;;13.86;40.90
59110;BME280;44895;47.438;18.978;2023-04-26T12:59:48;99840.44;;;13.86;41.34
59110;BME280;44895;47.438;18.978;2023-04-26T13:02:52;99843.47;;;13.85;41.81
59110;BME280;44895;47.438;18.978;2023-04-26T13:05:55;99833.03;;;13.52;41.52
59110;BME280;44895;47.438;18.978;2023-04-26T13:08:59;99847.97;;;13.63;41.12
59110;BME280;44895;47.438;18.978;2023-04-26T13:12:03;99827.09;;;13.85;40.33
59110;BME280;44895;47.438;18.978;2023-04-26T13:15:08;99835.09;;;14.25;40.31
59110;BME280;44895;47.438;18.978;2023-04-26T13:18:12;99816.63;;;14.05;39.87
59110;BME280;44895;47.438;18.978;2023-04-26T13:21:17;99824.38;;;14.02;40.20
59110;BME280;44895;47.438;18.978;2023-04-26T13:24:21;99829.00;;;13.93;40.82
59110;BME280;44895;47.438;18.978;2023-04-26T13:27:25;99841.34;;;13.38;41.76
59110;BME280;44895;47.438;18.978;2023-04-26T13:30:29;99849.00;;;13.27;42.17
59110;BME280;44895;47.438;18.978;2023-04-26T13:33:33;99844.88;;;13.38;43.11
59110;BME280;44895;47.438;18.978;2023-04-26T13:36:36;99858.47;;;13.30;41.64
59110;BME280;44895;47.438;18.978;2023-04-26T13:39:40;99857.97;;;13.19;41.87
59110;BME280;44895;47.438;18.978;2023-04-26T13:42:44;99854.88;;;13.12;41.41
59110;BME280;44895;47.438;18.978;2023-04-26T13:45:48;99859.59;;;13.20;41.92
59110;BME280;44895;47.438;18.978;2023-04-26T13:48:51;99858.56;;;13.74;41.34
59110;BME280;44895;47.438;18.978;2023-04-26T13:51:55;99856.16;;;13.98;41.93
59110;BME280;44895;47.438;18.978;2023-04-26T13:55:00;99852.16;;;13.87;40.56
59110;BME280;44895;47.438;18.978;2023-04-26T13:58:03;99859.53;;;13.78;40.01
59110;BME280;44895;47.438;18.978;2023-04-26T14:01:07;99861.47;;;13.86;39.91
59110;BME280;44895;47.438;18.978;2023-04-26T14:04:11;99854.56;;;14.15;40.11
59110;BME280;44895;47.438;18.978;2023-04-26T14:07:15;99855.84;;;14.17;39.89
59110;BME280;44895;47.438;18.978;2023-04-26T14:10:19;99852.16;;;13.78;40.90
59110;BME280;44895;47.438;18.978;2023-04-26T14:13:23;99854.72;;;13.66;41.26
59110;BME280;44895;47.438;18.978;2023-04-26T14:16:27;99859.88;;;14.02;42.47
59110;BME280;44895;47.438;18.978;2023-04-26T14:19:31;99861.13;;;13.79;41.90
59110;BME280;44895;47.438;18.978;2023-04-26T14:22:35;99875.09;;;13.60;41.85
59110;BME280;44895;47.438;18.978;2023-04-26T14:25:39;99873.63;;;13.53;41.84
59110;BME280;44895;47.438;18.978;2023-04-26T14:28:43;99872.91;;;13.30;41.37
59110;BME280;44895;47.438;18.978;2023-04-26T14:31:47;99869.75;;;12.97;41.60
59110;BME280;44895;47.438;18.978;2023-04-26T14:34:51;99871.69;;;12.96;41.74
59110;BME280;44895;47.438;18.978;2023-04-26T14:37:54;99880.22;;;13.03;41.26
59110;BME280;44895;47.438;18.978;2023-04-26T14:40:58;99878.13;;;13.09;41.36
59110;BME280;44895;47.438;18.978;2023-04-26T14:44:02;99878.44;;;13.48;41.85
59110;BME280;44895;47.438;18.978;2023-04-26T14:47:06;99873.16;;;13.43;42.22
59110;BME280;44895;47.438;18.978;2023-04-26T14:50:10;99868.50;;;13.52;42.52
59110;BME280;44895;47.438;18.978;2023-04-26T14:53:16;99873.16;;;13.60;42.42
59110;BME280;44895;47.438;18.978;2023-04-26T14:56:19;99875.41;;;13.49;43.07
59110;BME280;44895;47.438;18.978;2023-04-26T14:59:24;99873.31;;;13.06;42.92
59110;BME280;44895;47.438;18.978;2023-04-26T15:02:28;99879.22;;;12.99;42.98
59110;BME280;44895;47.438;18.978;2023-04-26T15:05:31;99881.91;;;12.91;41.15
59110;BME280;44895;47.438;18.978;2023-04-26T15:08:36;99890.34;;;12.80;40.77
59110;BME280;44895;47.438;18.978;2023-04-26T15:11:39;99897.25;;;12.78;41.27
59110;BME280;44895;47.438;18.978;2023-04-26T15:14:43;99897.00;;;12.97;41.10
59110;BME280;44895;47.438;18.978;2023-04-26T15:17:47;99889.66;;;12.97;41.09
59110;BME280;44895;47.438;18.978;2023-04-26T15:20:51;99881.25;;;12.85;41.64
59110;BME280;44895;47.438;18.978;2023-04-26T15:23:54;99876.44;;;12.91;41.49
59110;BME280;44895;47.438;18.978;2023-04-26T15:27:02;99886.00;;;13.11;41.67
59110;BME280;44895;47.438;18.978;2023-04-26T15:30:06;99886.22;;;13.32;41.50
59110;BME280;44895;47.438;18.978;2023-04-26T15:33:15;99884.19;;;13.37;41.51
59110;BME280;44895;47.438;18.978;2023-04-26T15:36:21;99890.47;;;13.47;40.47
59110;BME280;44895;47.438;18.978;2023-04-26T15:39:25;99889.50;;;13.43;40.48
59110;BME280;44895;47.438;18.978;2023-04-26T15:42:29;99890.25;;;13.34;40.03
59110;BME280;44895;47.438;18.978;2023-04-26T15:45:34;99886.69;;;13.25;40.95
59110;BME280;44895;47.438;18.978;2023-04-26T15:48:38;99891.59;;;13.05;41.26
59110;BME280;44895;47.438;18.978;2023-04-26T15:51:41;99893.28;;;13.24;41.14
59110;BME280;44895;47.438;18.978;2023-04-26T15:54:45;99891.25;;;13.38;41.72
59110;BME280;44895;47.438;18.978;2023-04-26T15:57:49;99896.16;;;13.19;41.93
59110;BME280;44895;47.438;18.978;2023-04-26T16:00:53;99896.28;;;13.14;42.47
59110;BME280;44895;47.438;18.978;2023-04-26T16:03:57;99896.81;;;12.93;42.33
59110;BME280;44895;47.438;18.978;2023-04-26T16:07:01;99904.47;;;13.14;43.05
59110;BME280;44895;47.438;18.978;2023-04-26T16:10:05;99900.34;;;13.25;42.36
59110;BME280;44895;47.438;18.978;2023-04-26T16:13:09;99907.22;;;13.23;41.65
59110;BME280;44895;47.438;18.978;2023-04-26T16:16:13;99911.50;;;13.06;40.85